Time;durP1;ratioP1;P1;durP2;ratioP2;P2;SDS_P1;SDS_P2;PMS_P1;PMS_P2;Temp;Humidity;BMP_temperature;BMP_pressure;BME280_temperature;BME280_humidity;BME280_pressure;Samples;Min_cycle;Max_cycle;Signal;HPM_P1;HPM_P2
2021/12/03 00:00:26;;;;;;;8.03;4.83;;;3.30;99.90;;;;;;5073275;28;20232;-82
2021/12/03 00:02:54;;;;;;;9.60;5.43;;;3.40;99.90;;;;;;5091282;28;20228;-82
2021/12/03 00:05:21;;;;;;;6.37;4.50;;;3.40;99.90;;;;;;5074416;28;20539;-81
2021/12/03 00:07:48;;;;;;;6.67;4.50;;;3.40;99.90;;;;;;5091804;28;20721;-83
2021/12/03 00:10:20;;;;;;;5.93;4.60;;;3.40;99.90;;;;;;5074427;28;20665;-82
2021/12/03 00:12:47;;;;;;;8.13;4.67;;;3.40;99.90;;;;;;5092501;28;20229;-83
2021/12/03 00:15:14;;;;;;;6.93;4.27;;;3.40;99.90;;;;;;5074578;28;20639;-84
2021/12/03 00:17:41;;;;;;;6.50;3.80;;;3.40;99.90;;;;;;5076598;28;20216;-83
2021/12/03 00:20:13;;;;;;;6.83;3.60;;;3.40;99.90;;;;;;5075159;28;20310;-83
2021/12/03 00:22:40;;;;;;;6.80;4.20;;;3.50;99.90;;;;;;5076796;28;20327;-82
2021/12/03 00:25:07;;;;;;;9.30;3.97;;;3.50;99.90;;;;;;5092716;28;20226;-82
2021/12/03 00:27:34;;;;;;;4.60;3.43;;;3.60;99.90;;;;;;5075080;28;20226;-81
2021/12/03 00:30:01;;;;;;;5.50;3.90;;;3.60;99.90;;;;;;5092326;28;20472;-82
2021/12/03 00:32:27;;;;;;;5.00;3.70;;;3.70;99.90;;;;;;5091889;28;20316;-83
2021/12/03 00:34:54;;;;;;;51.43;5.90;;;3.70;99.90;;;;;;5092313;28;20251;-84
2021/12/03 00:37:22;;;;;;;9.67;4.30;;;3.70;99.90;;;;;;5093700;28;20300;-83
2021/12/03 00:39:49;;;;;;;7.20;3.67;;;3.70;99.90;;;;;;5073645;28;20317;-83
2021/12/03 00:42:17;;;;;;;7.17;3.67;;;3.70;99.90;;;;;;5073751;28;20304;-82
2021/12/03 00:44:48;;;;;;;5.83;3.67;;;3.70;99.90;;;;;;5089982;28;20223;-82
2021/12/03 00:47:15;;;;;;;5.37;4.03;;;3.70;99.90;;;;;;5075164;28;20219;-82
2021/12/03 00:49:42;;;;;;;7.50;4.10;;;3.70;99.90;;;;;;5074008;28;20228;-82
2021/12/03 00:52:08;;;;;;;7.30;3.40;;;3.70;99.90;;;;;;5074164;28;20222;-83
2021/12/03 00:54:37;;;;;;;4.63;3.40;;;3.70;99.90;;;;;;5091621;28;20243;-82
2021/12/03 00:57:04;;;;;;;6.70;4.10;;;3.70;99.90;;;;;;5075206;28;20235;-81
2021/12/03 00:59:31;;;;;;;5.97;3.67;;;3.70;99.90;;;;;;5092016;28;20226;-82
2021/12/03 01:01:58;;;;;;;5.93;3.67;;;3.70;99.90;;;;;;5073705;28;20271;-82
2021/12/03 01:04:25;;;;;;;5.93;3.47;;;3.70;99.90;;;;;;5074222;28;20321;-82
2021/12/03 01:06:52;;;;;;;6.90;3.83;;;3.70;99.90;;;;;;5091715;28;20241;-83
2021/12/03 01:09:21;;;;;;;6.13;3.70;;;3.70;99.90;;;;;;5092937;28;20211;-82
2021/12/03 01:11:49;;;;;;;4.50;3.17;;;3.70;99.90;;;;;;5074362;28;20268;-83
2021/12/03 01:14:16;;;;;;;6.23;3.07;;;3.80;99.90;;;;;;5073317;28;20316;-83
2021/12/03 01:16:43;;;;;;;4.93;3.20;;;3.80;99.90;;;;;;5073745;28;20241;-83
2021/12/03 01:19:10;;;;;;;4.97;3.43;;;3.80;99.90;;;;;;5075322;28;20250;-83
2021/12/03 01:21:37;;;;;;;5.80;3.07;;;3.80;99.90;;;;;;5093342;28;20217;-84
2021/12/03 01:24:05;;;;;;;7.17;2.77;;;3.80;99.90;;;;;;5075517;28;20588;-82
2021/12/03 01:26:33;;;;;;;9.57;3.80;;;3.80;99.90;;;;;;5092645;28;20230;-82
2021/12/03 01:29:02;;;;;;;5.20;2.47;;;3.80;99.90;;;;;;5091988;28;20650;-82
2021/12/03 01:31:28;;;;;;;4.87;2.60;;;3.80;99.90;;;;;;5073862;28;20229;-83
2021/12/03 01:33:55;;;;;;;7.80;3.13;;;3.80;99.90;;;;;;5074926;28;20223;-83
2021/12/03 01:36:22;;;;;;;7.17;2.67;;;3.70;99.90;;;;;;5073032;28;20221;-84
2021/12/03 01:38:49;;;;;;;3.60;2.30;;;3.70;99.90;;;;;;5071158;28;20218;-84
2021/12/03 01:41:16;;;;;;;3.00;2.30;;;3.70;99.90;;;;;;5064651;28;20218;-84
2021/12/03 01:43:43;;;;;;;5.73;2.40;;;3.70;99.90;;;;;;5073465;28;20757;-84
2021/12/03 01:46:16;;;;;;;4.77;2.53;;;3.70;99.90;;;;;;5091012;28;20221;-83
2021/12/03 01:48:43;;;;;;;3.70;2.37;;;3.60;99.90;;;;;;5090869;28;20276;-82
2021/12/03 01:51:10;;;;;;;8.40;3.10;;;3.70;99.90;;;;;;5089892;28;20225;-82
2021/12/03 01:53:39;;;;;;;7.37;3.37;;;3.60;99.90;;;;;;5074321;28;20217;-82
2021/12/03 01:56:09;;;;;;;8.67;4.00;;;3.60;99.90;;;;;;5072829;28;20233;-82
2021/12/03 01:58:36;;;;;;;6.63;3.77;;;3.60;99.90;;;;;;5090415;28;20693;-83
2021/12/03 02:01:05;;;;;;;5.13;3.67;;;3.60;99.90;;;;;;5090176;28;20302;-83
2021/12/03 02:03:35;;;;;;;7.37;4.50;;;3.60;99.90;;;;;;5090776;28;20259;-82
2021/12/03 02:06:05;;;;;;;8.30;4.03;;;3.60;99.90;;;;;;5073640;28;20222;-83
2021/12/03 02:08:32;;;;;;;10.27;4.37;;;3.60;99.90;;;;;;5090211;28;20230;-83
2021/12/03 02:10:59;;;;;;;9.80;4.10;;;3.60;99.90;;;;;;5074255;28;20515;-83
2021/12/03 02:13:26;;;;;;;7.07;4.20;;;3.70;99.90;;;;;;5093360;28;20233;-83
2021/12/03 02:15:53;;;;;;;7.87;4.27;;;3.70;99.90;;;;;;5075291;28;20233;-83
2021/12/03 02:18:20;;;;;;;8.87;4.20;;;3.70;99.90;;;;;;5073475;28;20224;-84
2021/12/03 02:20:49;;;;;;;7.90;4.00;;;3.70;99.90;;;;;;5091940;28;20207;-84
2021/12/03 02:23:17;;;;;;;7.37;4.40;;;3.70;99.90;;;;;;5073233;28;20248;-84
2021/12/03 02:25:45;;;;;;;5.43;3.83;;;3.70;99.90;;;;;;5072789;28;20222;-83
2021/12/03 02:28:14;;;;;;;10.73;4.20;;;3.70;99.90;;;;;;5091180;28;20309;-82
2021/12/03 02:30:41;;;;;;;7.93;4.30;;;3.70;99.90;;;;;;5089175;28;20238;-82
2021/12/03 02:33:08;;;;;;;8.00;4.53;;;3.70;99.90;;;;;;5094207;28;20214;-81
2021/12/03 02:35:38;;;;;;;6.47;4.37;;;3.60;99.90;;;;;;5095294;28;20220;-82
2021/12/03 02:38:06;;;;;;;6.40;4.50;;;3.60;99.90;;;;;;5076785;28;20237;-84
2021/12/03 02:40:33;;;;;;;6.33;4.70;;;3.60;99.90;;;;;;5095488;28;20295;-84
2021/12/03 02:43:00;;;;;;;8.73;4.47;;;3.60;99.90;;;;;;5093705;28;20897;-84
2021/12/03 02:45:27;;;;;;;7.30;4.30;;;3.60;99.90;;;;;;5076546;28;20226;-84
2021/12/03 02:47:53;;;;;;;10.57;4.10;;;3.60;99.90;;;;;;5076650;28;20220;-82
2021/12/03 02:50:20;;;;;;;10.37;4.60;;;3.50;99.90;;;;;;5094914;28;20645;-84
2021/12/03 02:52:50;;;;;;;4.60;3.47;;;3.60;99.90;;;;;;5094793;28;20803;-84
2021/12/03 02:55:18;;;;;;;5.97;3.87;;;3.60;99.90;;;;;;5075772;28;20268;-82
2021/12/03 02:57:45;;;;;;;7.20;4.13;;;3.60;99.90;;;;;;5075752;28;20226;-81
2021/12/03 03:00:15;;;;;;;6.13;4.00;;;3.70;99.90;;;;;;5091769;28;20225;-81
2021/12/03 03:02:42;;;;;;;6.63;3.90;;;3.60;99.90;;;;;;5092003;28;20228;-82
2021/12/03 03:05:11;;;;;;;5.63;3.57;;;3.70;99.90;;;;;;5093710;28;20222;-81
2021/12/03 03:07:38;;;;;;;7.33;4.13;;;3.70;99.90;;;;;;5093109;28;20237;-81
2021/12/03 03:10:09;;;;;;;9.50;4.20;;;3.70;99.90;;;;;;5092242;28;20227;-82
2021/12/03 03:12:37;;;;;;;6.80;3.70;;;3.70;99.90;;;;;;5075070;28;20222;-83
2021/12/03 03:15:06;;;;;;;6.47;3.53;;;3.80;99.90;;;;;;5095096;28;20243;-84
2021/12/03 03:17:33;;;;;;;5.43;3.90;;;3.80;99.90;;;;;;5077653;28;20228;-84
2021/12/03 03:20:01;;;;;;;5.17;2.80;;;3.90;99.90;;;;;;5093539;28;20230;-84
2021/12/03 03:22:28;;;;;;;8.67;2.93;;;4.00;99.90;;;;;;5077824;28;20256;-83
2021/12/03 03:24:59;;;;;;;8.00;2.23;;;4.00;99.90;;;;;;5095768;28;20326;-84
2021/12/03 03:27:28;;;;;;;5.80;2.20;;;4.10;99.90;;;;;;5095218;28;20271;-85
2021/12/03 03:29:57;;;;;;;27.43;3.73;;;4.10;99.90;;;;;;5073644;28;20219;-85
2021/12/03 03:32:24;;;;;;;3.73;2.00;;;4.20;99.90;;;;;;5072658;28;20234;-84
2021/12/03 03:34:51;;;;;;;5.83;2.57;;;4.20;99.90;;;;;;5054740;28;20227;-86
2021/12/03 03:37:18;;;;;;;7.73;3.57;;;4.20;99.90;;;;;;5088241;28;20240;-86
2021/12/03 03:39:46;;;;;;;5.40;3.20;;;4.20;99.90;;;;;;5074480;28;20241;-86
2021/12/03 03:42:12;;;;;;;6.13;3.83;;;4.20;99.90;;;;;;5090452;28;20266;-85
2021/12/03 03:44:40;;;;;;;8.07;4.53;;;4.30;99.90;;;;;;5076469;28;20325;-86
2021/12/03 03:47:08;;;;;;;5.70;4.00;;;4.20;99.90;;;;;;5074854;28;20233;-85
2021/12/03 03:49:36;;;;;;;7.13;4.03;;;4.30;99.90;;;;;;5065653;28;20217;-85
2021/12/03 03:52:05;;;;;;;6.70;4.27;;;4.20;99.90;;;;;;5093989;28;20584;-85
2021/12/03 03:54:32;;;;;;;9.10;4.30;;;4.20;99.90;;;;;;5093307;28;20241;-85
2021/12/03 03:56:59;;;;;;;8.37;4.93;;;4.20;99.90;;;;;;5093656;28;20741;-84
2021/12/03 03:59:26;;;;;;;6.43;4.40;;;4.20;99.90;;;;;;5093950;28;20226;-85
2021/12/03 04:01:53;;;;;;;6.53;4.80;;;4.20;99.90;;;;;;5076476;28;20236;-84
2021/12/03 04:04:22;;;;;;;8.10;4.60;;;4.20;99.90;;;;;;5076066;28;20227;-84
2021/12/03 04:06:51;;;;;;;7.77;4.43;;;4.20;99.90;;;;;;5075410;28;20226;-83
2021/12/03 04:09:18;;;;;;;5.17;4.17;;;4.20;99.90;;;;;;5093007;28;20229;-83
2021/12/03 04:11:45;;;;;;;4.97;4.43;;;4.20;99.90;;;;;;5094038;28;20297;-83
2021/12/03 04:14:12;;;;;;;8.77;5.20;;;4.20;99.90;;;;;;5074589;28;20264;-83
2021/12/03 04:16:39;;;;;;;10.80;5.40;;;4.30;99.90;;;;;;5091840;28;20688;-83
2021/12/03 04:19:06;;;;;;;8.70;4.60;;;4.30;99.90;;;;;;5090733;28;20230;-83
2021/12/03 04:21:34;;;;;;;8.40;4.67;;;4.30;99.90;;;;;;5074194;28;20313;-82
2021/12/03 04:24:01;;;;;;;6.83;4.23;;;4.30;99.90;;;;;;5074963;28;20661;-83
2021/12/03 04:26:28;;;;;;;9.20;4.73;;;4.30;99.90;;;;;;5073858;28;20229;-83
2021/12/03 04:28:56;;;;;;;7.67;5.10;;;4.30;99.90;;;;;;5091628;28;20700;-83
2021/12/03 04:31:23;;;;;;;9.17;4.90;;;4.30;99.90;;;;;;5074442;28;20223;-82
2021/12/03 04:33:50;;;;;;;7.47;4.93;;;4.30;99.90;;;;;;5075129;28;20231;-84
2021/12/03 04:36:17;;;;;;;6.13;4.43;;;4.30;99.90;;;;;;5090338;28;20228;-84
2021/12/03 04:38:45;;;;;;;8.17;4.57;;;4.30;99.90;;;;;;5073536;28;20223;-83
2021/12/03 04:41:12;;;;;;;5.00;4.00;;;4.30;99.90;;;;;;5090552;28;20232;-82
2021/12/03 04:43:38;;;;;;;8.13;4.87;;;4.30;99.90;;;;;;5092133;28;20596;-84
2021/12/03 04:46:05;;;;;;;8.27;4.73;;;4.30;99.90;;;;;;5074284;28;20218;-83
2021/12/03 04:48:32;;;;;;;6.57;4.70;;;4.30;99.90;;;;;;5091392;28;20230;-83
2021/12/03 04:50:59;;;;;;;8.00;5.13;;;4.30;99.90;;;;;;5074379;28;20572;-85
2021/12/03 04:53:26;;;;;;;6.43;4.57;;;4.30;99.90;;;;;;5071861;28;20315;-85
2021/12/03 04:55:54;;;;;;;8.43;5.13;;;4.30;99.90;;;;;;5070436;28;20259;-86
2021/12/03 04:58:21;;;;;;;8.73;4.80;;;4.30;99.90;;;;;;5092405;28;20224;-84
2021/12/03 05:00:50;;;;;;;6.93;4.60;;;4.30;99.90;;;;;;5070592;28;20302;-85
2021/12/03 05:03:18;;;;;;;7.93;5.17;;;4.30;99.90;;;;;;5072444;28;20225;-82
2021/12/03 05:05:50;;;;;;;6.50;4.33;;;4.40;99.90;;;;;;5090478;28;20217;-82
2021/12/03 05:08:16;;;;;;;5.17;4.17;;;4.40;99.90;;;;;;5072185;28;20284;-83
2021/12/03 05:10:44;;;;;;;5.93;4.27;;;4.40;99.90;;;;;;5089296;28;20218;-83
2021/12/03 05:13:15;;;;;;;6.40;3.90;;;4.40;99.90;;;;;;5088930;28;20229;-82
2021/12/03 05:15:42;;;;;;;5.97;3.80;;;4.40;99.90;;;;;;5088904;28;20230;-82
2021/12/03 05:18:13;;;;;;;59.30;9.17;;;4.30;99.90;;;;;;5072590;28;20240;-82
2021/12/03 05:20:42;;;;;;;9.57;4.57;;;4.40;99.90;;;;;;5088585;28;20227;-81
2021/12/03 05:23:09;;;;;;;11.17;5.50;;;4.30;99.90;;;;;;5059459;28;20236;-84
2021/12/03 05:25:37;;;;;;;7.93;4.20;;;4.40;99.90;;;;;;5087921;28;20221;-81
2021/12/03 05:28:05;;;;;;;77.40;8.47;;;4.30;99.90;;;;;;5083889;28;20294;-83
2021/12/03 05:30:33;;;;;;;22.23;5.27;;;4.30;99.90;;;;;;5083663;28;20239;-83
2021/12/03 05:33:00;;;;;;;9.70;4.73;;;4.40;99.90;;;;;;5090178;28;20243;-85
2021/12/03 05:35:27;;;;;;;20.00;5.10;;;4.30;99.90;;;;;;5090798;28;20707;-85
2021/12/03 05:37:55;;;;;;;7.10;4.53;;;4.40;99.90;;;;;;5072620;28;20704;-85
2021/12/03 05:40:21;;;;;;;12.57;5.67;;;4.40;99.90;;;;;;5089162;28;20217;-84
2021/12/03 05:42:49;;;;;;;7.60;4.30;;;4.40;99.90;;;;;;5071972;28;20844;-85
2021/12/03 05:45:18;;;;;;;11.40;5.17;;;4.40;99.90;;;;;;5072149;28;20236;-84
2021/12/03 05:47:47;;;;;;;8.07;4.20;;;4.40;99.90;;;;;;5072038;28;20283;-84
2021/12/03 05:50:15;;;;;;;11.17;4.70;;;4.40;99.90;;;;;;5071702;28;20224;-84
2021/12/03 05:52:42;;;;;;;7.97;4.33;;;4.40;99.90;;;;;;5072236;28;20249;-84
2021/12/03 05:55:10;;;;;;;8.33;5.47;;;4.40;99.90;;;;;;5089463;28;20227;-85
2021/12/03 05:57:37;;;;;;;8.57;4.97;;;4.50;99.90;;;;;;5088294;28;20227;-81
2021/12/03 06:00:07;;;;;;;8.03;4.37;;;4.40;99.90;;;;;;5089313;28;20232;-84
2021/12/03 06:02:33;;;;;;;44.50;7.30;;;4.40;99.90;;;;;;5070807;28;20722;-84
2021/12/03 06:05:01;;;;;;;7.63;4.87;;;4.40;99.90;;;;;;5072278;28;20226;-84
2021/12/03 06:07:28;;;;;;;10.10;5.33;;;4.40;99.90;;;;;;5071513;28;20686;-85
2021/12/03 06:09:55;;;;;;;7.17;4.47;;;4.50;99.90;;;;;;5069451;28;20248;-84
2021/12/03 06:12:22;;;;;;;6.73;4.73;;;4.40;99.90;;;;;;5075344;28;20612;-84
2021/12/03 06:14:48;;;;;;;5.83;4.57;;;4.30;99.90;;;;;;5088311;28;20253;-84
2021/12/03 06:17:15;;;;;;;10.63;4.90;;;4.40;99.90;;;;;;5091671;28;20222;-85
2021/12/03 06:19:43;;;;;;;5.80;4.37;;;4.30;99.90;;;;;;5077235;28;20246;-84
2021/12/03 06:22:12;;;;;;;8.63;4.50;;;4.40;99.90;;;;;;5069159;28;20229;-84
2021/12/03 06:24:39;;;;;;;11.37;4.83;;;4.40;99.90;;;;;;5078328;28;20227;-84
2021/12/03 06:27:07;;;;;;;6.20;4.50;;;4.40;99.90;;;;;;5066626;28;20214;-84
2021/12/03 06:29:34;;;;;;;8.80;5.73;;;4.40;99.90;;;;;;5080073;28;20213;-84
2021/12/03 06:32:00;;;;;;;18.60;5.93;;;4.40;99.90;;;;;;5081671;28;20238;-84
2021/12/03 06:34:27;;;;;;;7.97;4.90;;;4.40;99.90;;;;;;5079369;28;20327;-85
2021/12/03 06:36:55;;;;;;;9.13;5.27;;;4.40;99.90;;;;;;5090866;28;20694;-84
2021/12/03 06:39:23;;;;;;;9.63;5.20;;;4.40;99.90;;;;;;5067690;28;20219;-84
2021/12/03 06:41:49;;;;;;;12.07;5.70;;;4.40;99.90;;;;;;5064908;28;20838;-84
2021/12/03 06:44:17;;;;;;;28.27;6.30;;;4.40;99.90;;;;;;5078543;28;20242;-84
2021/12/03 06:46:44;;;;;;;7.93;5.40;;;4.40;99.90;;;;;;5076113;28;20294;-84
2021/12/03 06:49:11;;;;;;;8.57;5.43;;;4.50;99.90;;;;;;5066320;28;20231;-84
2021/12/03 06:51:41;;;;;;;6.10;5.10;;;4.40;99.90;;;;;;5060314;28;20904;-84
2021/12/03 06:54:10;;;;;;;12.63;5.47;;;4.50;99.90;;;;;;5066472;28;20797;-84
2021/12/03 06:56:47;;;;;;;7.80;5.00;;;4.50;99.90;;;;;;5069692;28;20238;-84
2021/12/03 06:59:16;;;;;;;8.33;4.83;;;4.50;99.90;;;;;;5071009;28;20593;-85
2021/12/03 07:01:43;;;;;;;6.93;4.53;;;4.50;99.90;;;;;;5072850;28;20229;-82
2021/12/03 07:04:10;;;;;;;9.10;5.00;;;4.50;99.90;;;;;;5089688;28;20224;-82
2021/12/03 07:06:37;;;;;;;5.83;5.30;;;4.50;99.90;;;;;;5089239;28;20340;-82
2021/12/03 07:09:05;;;;;;;8.73;5.13;;;4.50;99.90;;;;;;5089940;28;20264;-82
2021/12/03 07:11:32;;;;;;;5.80;5.20;;;4.50;99.90;;;;;;5091428;28;20208;-81
2021/12/03 07:14:00;;;;;;;9.23;5.43;;;4.50;99.90;;;;;;5089379;28;20222;-82
2021/12/03 07:16:27;;;;;;;7.73;5.80;;;4.50;99.90;;;;;;5090586;28;20946;-82
2021/12/03 07:18:54;;;;;;;6.90;5.33;;;4.60;99.90;;;;;;5090392;28;20230;-82
2021/12/03 07:21:21;;;;;;;7.47;5.43;;;4.50;99.90;;;;;;5072751;28;20222;-82
2021/12/03 07:23:50;;;;;;;8.63;5.73;;;4.50;99.90;;;;;;5090969;28;20236;-82
2021/12/03 07:26:17;;;;;;;7.97;5.07;;;4.60;99.90;;;;;;5072349;28;20279;-82
2021/12/03 07:28:44;;;;;;;6.73;5.40;;;4.60;99.90;;;;;;5072521;28;20225;-82
2021/12/03 07:31:12;;;;;;;9.80;4.87;;;4.60;99.90;;;;;;5095811;28;20326;-81
2021/12/03 07:33:39;;;;;;;6.97;5.17;;;4.60;99.90;;;;;;5090773;28;20325;-82
2021/12/03 07:36:06;;;;;;;7.80;4.80;;;4.60;99.90;;;;;;5072228;28;20224;-82
2021/12/03 07:38:34;;;;;;;8.47;4.93;;;4.60;99.90;;;;;;5088478;28;20261;-82
2021/12/03 07:41:02;;;;;;;6.00;5.00;;;4.60;99.90;;;;;;5088711;28;20224;-82
2021/12/03 07:43:29;;;;;;;7.43;5.00;;;4.60;99.90;;;;;;5071430;28;20232;-82
2021/12/03 07:45:55;;;;;;;8.37;5.27;;;4.60;99.90;;;;;;5071717;28;20228;-82
2021/12/03 07:48:23;;;;;;;10.13;6.20;;;4.60;99.90;;;;;;5071205;28;20276;-82
2021/12/03 07:50:51;;;;;;;8.07;5.70;;;4.50;99.90;;;;;;5090576;28;20701;-82
2021/12/03 07:53:19;;;;;;;8.80;5.67;;;4.50;99.90;;;;;;5088480;28;20458;-81
2021/12/03 07:55:46;;;;;;;7.97;6.30;;;4.50;99.90;;;;;;5071142;28;20926;-82
2021/12/03 07:58:14;;;;;;;7.60;5.30;;;4.50;99.90;;;;;;5088487;28;20243;-82
2021/12/03 08:00:41;;;;;;;8.37;5.53;;;4.50;99.90;;;;;;5087525;28;20249;-82
2021/12/03 08:03:08;;;;;;;8.27;6.10;;;4.40;99.90;;;;;;5088713;28;20215;-82
2021/12/03 08:05:36;;;;;;;6.13;5.50;;;4.40;99.90;;;;;;5088084;28;20228;-82
2021/12/03 08:08:03;;;;;;;7.47;5.23;;;4.40;99.90;;;;;;5087845;28;20230;-82
2021/12/03 08:10:30;;;;;;;6.53;5.00;;;4.50;99.90;;;;;;5071108;28;20245;-80
2021/12/03 08:12:57;;;;;;;7.30;4.87;;;4.40;99.90;;;;;;5071442;28;20360;-82
2021/12/03 08:15:23;;;;;;;8.23;5.30;;;4.50;99.90;;;;;;5071121;28;20260;-82
2021/12/03 08:17:51;;;;;;;6.37;5.30;;;4.60;99.90;;;;;;5089413;28;20222;-82
2021/12/03 08:20:18;;;;;;;7.77;4.93;;;4.70;99.90;;;;;;5070461;28;20224;-82
2021/12/03 08:22:46;;;;;;;7.37;4.70;;;4.80;99.90;;;;;;5089398;28;20209;-82
2021/12/03 08:25:13;;;;;;;6.57;4.73;;;5.00;99.90;;;;;;5070834;28;20321;-82
2021/12/03 08:27:41;;;;;;;6.83;4.73;;;5.20;99.90;;;;;;5071061;28;20300;-82
2021/12/03 08:30:11;;;;;;;6.53;4.57;;;5.50;99.90;;;;;;5069900;28;20224;-82
2021/12/03 08:32:38;;;;;;;7.37;4.63;;;5.70;99.90;;;;;;5089748;28;20218;-82
2021/12/03 08:35:05;;;;;;;5.83;4.73;;;6.00;99.90;;;;;;5088969;28;20225;-82
2021/12/03 08:37:32;;;;;;;4.80;4.30;;;6.10;99.90;;;;;;5087976;28;20401;-82
2021/12/03 08:40:00;;;;;;;7.57;4.27;;;6.30;99.90;;;;;;5071128;28;20229;-82
2021/12/03 08:42:27;;;;;;;6.13;4.43;;;6.40;99.90;;;;;;5071208;28;20230;-82
2021/12/03 08:44:54;;;;;;;9.07;5.10;;;6.40;99.90;;;;;;5071109;28;20231;-82
2021/12/03 08:47:21;;;;;;;7.87;4.77;;;6.50;99.90;;;;;;5071241;28;20236;-82
2021/12/03 08:49:51;;;;;;;7.80;4.70;;;6.50;99.90;;;;;;5070837;28;20329;-82
2021/12/03 08:55:04;;;;;;;6.53;5.07;;;6.70;99.90;;;;;;5070642;28;20307;-82
2021/12/03 08:57:33;;;;;;;6.60;5.17;;;6.90;99.90;;;;;;5070568;28;20222;-82
2021/12/03 09:00:05;;;;;;;8.77;6.17;;;7.10;99.90;;;;;;5054532;28;20329;-82
2021/12/03 09:02:32;;;;;;;7.90;5.80;;;7.30;99.90;;;;;;5069658;28;20234;-82
2021/12/03 09:04:59;;;;;;;7.77;4.83;;;7.50;99.90;;;;;;5058299;28;20219;-82
2021/12/03 09:07:26;;;;;;;7.60;4.87;;;7.80;99.90;;;;;;5057331;28;20327;-82
2021/12/03 09:09:52;;;;;;;8.57;5.57;;;8.00;99.90;;;;;;5081083;28;20318;-82
2021/12/03 09:12:20;;;;;;;8.63;5.57;;;8.30;99.90;;;;;;5050316;28;20238;-81
2021/12/03 09:14:50;;;;;;;7.87;5.73;;;8.60;99.90;;;;;;5061429;28;20224;-81
2021/12/03 09:17:28;;;;;;;7.03;5.50;;;8.80;99.90;;;;;;5067783;28;20229;-82
2021/12/03 09:20:00;;;;;;;8.47;5.97;;;9.10;99.90;;;;;;5049973;28;20216;-82
2021/12/03 09:22:34;;;;;;;7.87;6.20;;;9.40;99.90;;;;;;5050428;28;20243;-82
2021/12/03 09:25:01;;;;;;;7.47;5.83;;;9.50;99.90;;;;;;5062314;28;20738;-82
2021/12/03 09:27:30;;;;;;;9.20;6.50;;;9.70;99.90;;;;;;5086889;28;20648;-83
2021/12/03 09:29:57;;;;;;;7.53;5.93;;;9.80;99.00;;;;;;5071632;28;20249;-82
2021/12/03 09:32:28;;;;;;;8.33;6.87;;;9.80;99.10;;;;;;5069936;28;20286;-82
2021/12/03 09:34:55;;;;;;;9.63;7.20;;;9.80;98.90;;;;;;5088751;28;20213;-82
2021/12/03 09:37:22;;;;;;;11.47;7.67;;;9.80;99.20;;;;;;5054735;28;20233;-82
2021/12/03 09:39:48;;;;;;;11.13;8.00;;;9.80;98.70;;;;;;5051318;28;20650;-82
2021/12/03 09:42:18;;;;;;;10.20;7.97;;;9.80;99.10;;;;;;5061846;28;20216;-82
2021/12/03 09:44:49;;;;;;;9.17;7.63;;;9.70;99.10;;;;;;5067955;28;20246;-82
2021/12/03 09:47:16;;;;;;;10.67;7.77;;;9.70;99.00;;;;;;5060185;28;20216;-82
2021/12/03 09:49:44;;;;;;;11.40;7.83;;;9.70;98.90;;;;;;5085363;28;20219;-82
2021/12/03 09:52:22;;;;;;;8.97;7.90;;;9.70;98.70;;;;;;5086290;28;20226;-81
2021/12/03 09:54:50;;;;;;;11.63;8.10;;;9.60;98.80;;;;;;5052540;28;20688;-81
2021/12/03 09:57:26;;;;;;;10.83;8.50;;;9.50;98.30;;;;;;5068327;28;20225;-82
2021/12/03 10:14:21;;;;;;;16.07;10.60;;;8.00;98.90;;;;;;5064479;28;20233;-81
2021/12/03 10:19:53;;;;;;;14.10;10.20;;;7.80;99.10;;;;;;5088625;27;20571;-80
2021/12/03 10:22:34;;;;;;;16.00;10.70;;;7.30;99.80;;;;;;5086280;28;20254;-80
2021/12/03 10:28:29;;;;;;;16.70;11.33;;;6.90;99.90;;;;;;5026384;28;20212;-80
2021/12/03 10:33:57;;;;;;;18.43;11.33;;;6.70;99.90;;;;;;5030561;28;20340;-79
2021/12/03 10:39:34;;;;;;;19.83;11.37;;;6.50;99.90;;;;;;5083055;28;20225;-78
2021/12/03 10:42:11;;;;;;;17.80;11.87;;;6.50;99.90;;;;;;5088263;28;20226;-79
2021/12/03 10:45:02;;;;;;;18.93;11.70;;;6.40;99.90;;;;;;5089579;28;20232;-78
2021/12/03 10:47:38;;;;;;;20.10;12.37;;;6.40;99.90;;;;;;5081434;28;20225;-78
2021/12/03 10:50:12;;;;;;;17.60;12.13;;;6.30;99.90;;;;;;5081735;28;20222;-79
2021/12/03 10:53:00;;;;;;;21.67;11.97;;;6.30;99.90;;;;;;5084977;28;20236;-79
2021/12/03 11:01:36;;;;;;;17.73;12.07;;;6.20;99.90;;;;;;5076565;28;20227;-79
2021/12/03 11:18:26;;;;;;;21.57;13.10;;;6.20;99.90;;;;;;5085345;28;20234;-80
2021/12/03 11:29:44;;;;;;;22.33;13.30;;;6.30;99.90;;;;;;5080154;28;20555;-79
2021/12/03 11:35:33;;;;;;;21.27;13.20;;;6.30;99.90;;;;;;5069415;28;20241;-79
2021/12/03 11:38:42;;;;;;;22.73;13.83;;;6.30;99.90;;;;;;5073258;28;20230;-79
2021/12/03 11:58:57;;;;;;;25.43;14.97;;;6.20;99.90;;;;;;5063110;28;20302;-79
2021/12/03 13:25:46;;;;;;;30.47;16.03;;;6.20;99.90;;;;;;5067727;28;20693;-80
2021/12/03 14:02:17;;;;;;;30.60;15.57;;;6.40;99.90;;;;;;5055007;28;20667;-79
2021/12/03 14:05:06;;;;;;;29.10;14.90;;;6.40;99.90;;;;;;5050688;28;20666;-80
2021/12/03 14:39:22;;;;;;;27.10;14.20;;;6.20;99.90;;;;;;5019028;28;20227;-79
2021/12/03 14:50:47;;;;;;;28.27;15.17;;;6.00;99.90;;;;;;5046463;28;20212;-80
2021/12/03 14:53:33;;;;;;;24.40;13.40;;;6.00;99.90;;;;;;5045844;28;20238;-80
2021/12/03 14:56:05;;;;;;;27.67;13.97;;;5.90;99.90;;;;;;5057016;28;20228;-80
2021/12/03 14:58:38;;;;;;;28.73;14.40;;;5.90;99.90;;;;;;5062863;28;20405;-79
2021/12/03 15:01:16;;;;;;;26.77;14.17;;;5.90;99.90;;;;;;5056990;28;20727;-80
2021/12/03 15:03:59;;;;;;;24.50;14.23;;;5.80;99.90;;;;;;5050842;28;20754;-80
2021/12/03 15:06:34;;;;;;;28.60;13.97;;;5.70;99.90;;;;;;5046079;28;20231;-80
2021/12/03 15:09:07;;;;;;;25.37;13.90;;;5.70;99.90;;;;;;5047746;28;20218;-79
2021/12/03 15:23:02;;;;;;;28.43;13.80;;;5.60;99.90;;;;;;5129615;27;20571;-79
2021/12/03 15:25:35;;;;;;;29.70;14.67;;;5.60;99.90;;;;;;5101491;28;20293;-80
2021/12/03 15:28:23;;;;;;;23.70;13.40;;;5.50;99.90;;;;;;5103774;28;20304;-80
2021/12/03 15:30:58;;;;;;;20.63;12.13;;;5.50;99.90;;;;;;5099177;28;20855;-79
2021/12/03 15:33:37;;;;;;;23.60;11.60;;;5.50;99.90;;;;;;5104228;28;20206;-79
2021/12/03 15:36:06;;;;;;;21.23;11.90;;;5.40;99.90;;;;;;5100233;28;20221;-79
2021/12/03 15:41:37;;;;;;;22.77;12.33;;;5.40;99.90;;;;;;5101913;28;20229;-79
2021/12/03 15:58:11;;;;;;;18.83;11.10;;;5.10;99.90;;;;;;5086042;28;20745;-83
2021/12/03 16:03:34;;;;;;;20.03;11.43;;;5.00;99.90;;;;;;5087263;28;20717;-84
2021/12/03 16:08:46;;;;;;;21.20;11.83;;;5.00;99.90;;;;;;5102508;28;20232;-85
2021/12/03 16:11:23;;;;;;;22.97;9.97;;;5.00;99.90;;;;;;5100143;28;20720;-84
2021/12/03 16:13:57;;;;;;;19.60;10.53;;;5.00;99.90;;;;;;5103053;28;20286;-83
2021/12/03 16:19:24;;;;;;;16.20;10.70;;;5.00;99.90;;;;;;5096540;28;20328;-84
2021/12/03 16:22:03;;;;;;;17.70;10.90;;;4.90;99.90;;;;;;5104201;28;20238;-84
2021/12/03 16:43:50;;;;;;;16.53;10.77;;;4.90;99.90;;;;;;5086631;28;20230;-86
2021/12/03 16:51:51;;;;;;;27.73;10.87;;;5.00;99.90;;;;;;5090914;28;20826;-83
2021/12/03 16:54:24;;;;;;;14.27;9.70;;;5.00;99.90;;;;;;5090042;28;20224;-83
2021/12/03 16:56:52;;;;;;;33.87;11.10;;;5.10;99.90;;;;;;5091149;28;20312;-81
2021/12/03 16:59:21;;;;;;;20.43;10.30;;;5.10;99.90;;;;;;5092421;28;20563;-82
2021/12/03 17:01:53;;;;;;;15.37;9.77;;;5.10;99.90;;;;;;5089209;28;20317;-82
2021/12/03 17:04:33;;;;;;;19.73;14.00;;;5.10;99.90;;;;;;5094776;28;20229;-82
2021/12/03 17:15:29;;;;;;;13.43;8.73;;;5.20;99.90;;;;;;5087760;28;20746;-83
2021/12/03 17:48:28;;;;;;;10.60;9.47;;;5.40;99.90;;;;;;5069558;28;20604;-82
2021/12/03 17:51:07;;;;;;;9.63;8.10;;;5.40;99.90;;;;;;5070192;28;20312;-83
2021/12/03 17:53:51;;;;;;;9.40;6.57;;;5.40;99.90;;;;;;5069494;28;20571;-83
2021/12/03 17:56:19;;;;;;;19.47;14.13;;;5.40;99.90;;;;;;5069787;28;20256;-84
2021/12/03 17:58:48;;;;;;;22.17;15.70;;;5.50;99.90;;;;;;5070979;28;20211;-83
2021/12/03 18:01:19;;;;;;;14.57;9.37;;;5.50;99.90;;;;;;5069657;28;20232;-83
2021/12/03 18:03:52;;;;;;;40.27;29.43;;;5.50;99.90;;;;;;5068240;28;20238;-84
2021/12/03 18:09:19;;;;;;;10.13;7.03;;;5.50;99.90;;;;;;5066957;28;20715;-84
2021/12/03 18:15:05;;;;;;;7.80;5.40;;;5.50;99.90;;;;;;5040258;28;20941;-82
2021/12/03 18:45:09;;;;;;;6.80;5.03;;;5.70;99.90;;;;;;5086302;28;20267;-79
2021/12/03 18:47:51;;;;;;;9.77;5.53;;;5.80;99.90;;;;;;5088110;28;20703;-80
2021/12/03 18:50:44;;;;;;;8.53;5.63;;;5.80;99.90;;;;;;5087318;28;20214;-80
2021/12/03 18:53:29;;;;;;;7.37;5.77;;;5.80;99.90;;;;;;5094627;28;20613;-80
2021/12/03 18:55:57;;;;;;;15.90;6.40;;;5.80;99.90;;;;;;5090759;28;20262;-82
2021/12/03 18:58:25;;;;;;;8.93;5.93;;;5.80;99.90;;;;;;5090945;28;20239;-83
2021/12/03 19:00:53;;;;;;;7.90;6.10;;;5.90;99.90;;;;;;5089595;28;20253;-84
2021/12/03 19:03:25;;;;;;;5.63;5.03;;;5.90;99.90;;;;;;5090526;28;20252;-84
2021/12/03 19:06:01;;;;;;;8.90;5.53;;;5.90;99.90;;;;;;5086222;28;20228;-84
2021/12/03 19:08:38;;;;;;;13.23;6.10;;;5.90;99.90;;;;;;5091942;28;20221;-84
2021/12/03 19:11:08;;;;;;;7.47;5.77;;;6.00;99.90;;;;;;5092630;28;20214;-82
2021/12/03 19:13:38;;;;;;;8.67;6.43;;;6.00;99.90;;;;;;5088787;28;20232;-81
2021/12/03 19:16:08;;;;;;;8.93;6.37;;;6.00;99.90;;;;;;5089257;28;20213;-83